sensor_id;sensor_type;location;lat;lon;timestamp;temperature;humidity
22364;DHT22;11349;53.412;-1.328;2023-07-22T00:01:16;14.50;78.20
22364;DHT22;11349;53.412;-1.328;2023-07-22T00:03:41;14.60;99.90
22364;DHT22;11349;53.412;-1.328;2023-07-22T00:06:08;14.60;99.90
22364;DHT22;11349;53.412;-1.328;2023-07-22T00:08:35;14.60;99.90
22364;DHT22;11349;53.412;-1.328;2023-07-22T00:11:03;14.70;54.10
22364;DHT22;11349;53.412;-1.328;2023-07-22T00:13:28;14.70;99.90
22364;DHT22;11349;53.412;-1.328;2023-07-22T00:15:55;14.70;1.00
22364;DHT22;11349;53.412;-1.328;2023-07-22T00:18:20;14.70;99.90
22364;DHT22;11349;53.412;-1.328;2023-07-22T00:20:46;14.50;99.90
22364;DHT22;11349;53.412;-1.328;2023-07-22T00:23:13;14.40;99.90
22364;DHT22;11349;53.412;-1.328;2023-07-22T00:25:40;14.30;99.90
22364;DHT22;11349;53.412;-1.328;2023-07-22T00:28:06;14.30;99.90
22364;DHT22;11349;53.412;-1.328;2023-07-22T00:30:32;14.40;99.90
22364;DHT22;11349;53.412;-1.328;2023-07-22T00:32:58;14.30;99.90
22364;DHT22;11349;53.412;-1.328;2023-07-22T00:35:23;14.20;99.90
22364;DHT22;11349;53.412;-1.328;2023-07-22T00:37:49;14.20;99.90
22364;DHT22;11349;53.412;-1.328;2023-07-22T00:40:15;14.10;99.90
22364;DHT22;11349;53.412;-1.328;2023-07-22T00:42:41;14.10;99.90
22364;DHT22;11349;53.412;-1.328;2023-07-22T00:45:07;14.10;99.90
22364;DHT22;11349;53.412;-1.328;2023-07-22T00:47:36;14.10;99.90
22364;DHT22;11349;53.412;-1.328;2023-07-22T00:50:03;14.20;99.90
22364;DHT22;11349;53.412;-1.328;2023-07-22T00:52:29;14.20;99.90
22364;DHT22;11349;53.412;-1.328;2023-07-22T00:54:55;14.20;99.90
22364;DHT22;11349;53.412;-1.328;2023-07-22T00:57:22;14.10;99.90
22364;DHT22;11349;53.412;-1.328;2023-07-22T00:59:48;14.10;99.90
22364;DHT22;11349;53.412;-1.328;2023-07-22T01:02:14;14.20;99.90
22364;DHT22;11349;53.412;-1.328;2023-07-22T01:04:40;14.20;99.90
22364;DHT22;11349;53.412;-1.328;2023-07-22T01:07:06;14.20;99.90
22364;DHT22;11349;53.412;-1.328;2023-07-22T01:09:39;14.10;99.90
22364;DHT22;11349;53.412;-1.328;2023-07-22T01:12:05;14.00;99.90
22364;DHT22;11349;53.412;-1.328;2023-07-22T01:14:33;13.90;99.90
22364;DHT22;11349;53.412;-1.328;2023-07-22T01:17:03;13.90;99.90
22364;DHT22;11349;53.412;-1.328;2023-07-22T01:19:30;13.90;99.90
22364;DHT22;11349;53.412;-1.328;2023-07-22T01:22:00;13.90;99.90
22364;DHT22;11349;53.412;-1.328;2023-07-22T01:24:28;13.90;99.90
22364;DHT22;11349;53.412;-1.328;2023-07-22T01:26:54;13.80;99.90
22364;DHT22;11349;53.412;-1.328;2023-07-22T01:29:21;13.80;99.90
22364;DHT22;11349;53.412;-1.328;2023-07-22T01:31:49;13.70;99.90
22364;DHT22;11349;53.412;-1.328;2023-07-22T01:34:15;13.90;99.90
22364;DHT22;11349;53.412;-1.328;2023-07-22T01:36:41;13.90;99.90
22364;DHT22;11349;53.412;-1.328;2023-07-22T01:39:08;14.00;99.90
22364;DHT22;11349;53.412;-1.328;2023-07-22T01:41:34;14.10;99.90
22364;DHT22;11349;53.412;-1.328;2023-07-22T01:43:59;14.20;99.90
22364;DHT22;11349;53.412;-1.328;2023-07-22T01:46:25;14.30;99.90
22364;DHT22;11349;53.412;-1.328;2023-07-22T01:48:51;14.40;1.00
22364;DHT22;11349;53.412;-1.328;2023-07-22T01:51:17;14.50;99.90
22364;DHT22;11349;53.412;-1.328;2023-07-22T01:53:42;14.60;1.00
22364;DHT22;11349;53.412;-1.328;2023-07-22T01:56:08;14.50;1.00
22364;DHT22;11349;53.412;-1.328;2023-07-22T01:58:34;14.70;25.80
22364;DHT22;11349;53.412;-1.328;2023-07-22T02:01:00;14.90;1.00
22364;DHT22;11349;53.412;-1.328;2023-07-22T02:03:25;15.30;99.90
22364;DHT22;11349;53.412;-1.328;2023-07-22T02:05:52;15.40;1.00
22364;DHT22;11349;53.412;-1.328;2023-07-22T02:08:17;15.40;1.00
22364;DHT22;11349;53.412;-1.328;2023-07-22T02:10:43;15.40;58.30
22364;DHT22;11349;53.412;-1.328;2023-07-22T02:13:09;15.30;1.00
22364;DHT22;11349;53.412;-1.328;2023-07-22T02:15:35;15.50;99.90
22364;DHT22;11349;53.412;-1.328;2023-07-22T02:18:00;15.60;57.80
22364;DHT22;11349;53.412;-1.328;2023-07-22T02:20:26;15.60;84.40
22364;DHT22;11349;53.412;-1.328;2023-07-22T02:22:54;15.80;1.00
22364;DHT22;11349;53.412;-1.328;2023-07-22T02:25:20;15.80;99.90
22364;DHT22;11349;53.412;-1.328;2023-07-22T02:27:46;15.80;1.00
22364;DHT22;11349;53.412;-1.328;2023-07-22T02:30:12;15.80;1.00
22364;DHT22;11349;53.412;-1.328;2023-07-22T02:32:41;15.90;99.90
22364;DHT22;11349;53.412;-1.328;2023-07-22T02:35:07;16.10;99.90
22364;DHT22;11349;53.412;-1.328;2023-07-22T02:37:36;16.00;99.90
22364;DHT22;11349;53.412;-1.328;2023-07-22T02:40:02;16.00;99.90
22364;DHT22;11349;53.412;-1.328;2023-07-22T02:42:34;16.10;99.90
22364;DHT22;11349;53.412;-1.328;2023-07-22T02:45:01;16.10;99.90
22364;DHT22;11349;53.412;-1.328;2023-07-22T02:47:27;15.90;1.00
22364;DHT22;11349;53.412;-1.328;2023-07-22T02:49:53;15.90;99.90
22364;DHT22;11349;53.412;-1.328;2023-07-22T02:52:19;15.90;99.90
22364;DHT22;11349;53.412;-1.328;2023-07-22T02:55:04;15.80;99.90
22364;DHT22;11349;53.412;-1.328;2023-07-22T02:57:31;15.90;99.90
22364;DHT22;11349;53.412;-1.328;2023-07-22T02:59:59;15.90;99.90
22364;DHT22;11349;53.412;-1.328;2023-07-22T03:02:24;16.00;99.90
22364;DHT22;11349;53.412;-1.328;2023-07-22T03:04:50;16.00;99.90
22364;DHT22;11349;53.412;-1.328;2023-07-22T03:07:16;15.90;99.90
22364;DHT22;11349;53.412;-1.328;2023-07-22T03:09:42;16.00;99.90
22364;DHT22;11349;53.412;-1.328;2023-07-22T03:12:08;16.10;1.00
22364;DHT22;11349;53.412;-1.328;2023-07-22T03:14:33;15.90;99.90
22364;DHT22;11349;53.412;-1.328;2023-07-22T03:17:02;15.80;1.00
22364;DHT22;11349;53.412;-1.328;2023-07-22T03:19:29;15.70;1.00
22364;DHT22;11349;53.412;-1.328;2023-07-22T03:21:55;15.50;1.00
22364;DHT22;11349;53.412;-1.328;2023-07-22T03:24:21;15.60;1.00
22364;DHT22;11349;53.412;-1.328;2023-07-22T03:26:46;15.80;99.90
22364;DHT22;11349;53.412;-1.328;2023-07-22T03:29:12;15.80;99.90
22364;DHT22;11349;53.412;-1.328;2023-07-22T03:31:38;15.90;99.90
22364;DHT22;11349;53.412;-1.328;2023-07-22T03:34:04;15.90;99.90
22364;DHT22;11349;53.412;-1.328;2023-07-22T03:36:30;16.10;66.70
22364;DHT22;11349;53.412;-1.328;2023-07-22T03:38:59;16.10;99.90
22364;DHT22;11349;53.412;-1.328;2023-07-22T03:41:25;16.00;99.90
22364;DHT22;11349;53.412;-1.328;2023-07-22T03:43:51;16.00;99.90
22364;DHT22;11349;53.412;-1.328;2023-07-22T03:46:16;16.00;99.90
22364;DHT22;11349;53.412;-1.328;2023-07-22T03:48:42;16.10;20.80
22364;DHT22;11349;53.412;-1.328;2023-07-22T03:51:08;15.80;83.70
22364;DHT22;11349;53.412;-1.328;2023-07-22T03:53:33;15.70;1.00
22364;DHT22;11349;53.412;-1.328;2023-07-22T03:55:59;15.80;99.90
22364;DHT22;11349;53.412;-1.328;2023-07-22T03:58:25;15.80;1.00
22364;DHT22;11349;53.412;-1.328;2023-07-22T04:00:51;15.90;99.90
22364;DHT22;11349;53.412;-1.328;2023-07-22T04:03:16;16.10;99.90
22364;DHT22;11349;53.412;-1.328;2023-07-22T04:05:42;16.20;99.90
22364;DHT22;11349;53.412;-1.328;2023-07-22T04:08:08;16.20;78.90
22364;DHT22;11349;53.412;-1.328;2023-07-22T04:10:33;16.10;99.90
22364;DHT22;11349;53.412;-1.328;2023-07-22T04:13:02;16.20;99.90
22364;DHT22;11349;53.412;-1.328;2023-07-22T04:15:28;16.20;99.90
22364;DHT22;11349;53.412;-1.328;2023-07-22T04:17:55;16.20;1.00
22364;DHT22;11349;53.412;-1.328;2023-07-22T04:20:21;16.10;99.90
22364;DHT22;11349;53.412;-1.328;2023-07-22T04:22:49;16.10;32.70
22364;DHT22;11349;53.412;-1.328;2023-07-22T04:25:15;16.10;99.90
22364;DHT22;11349;53.412;-1.328;2023-07-22T04:27:40;15.90;99.90
22364;DHT22;11349;53.412;-1.328;2023-07-22T04:30:07;15.90;1.00
22364;DHT22;11349;53.412;-1.328;2023-07-22T04:32:32;15.60;99.90
22364;DHT22;11349;53.412;-1.328;2023-07-22T04:34:58;15.80;99.90
22364;DHT22;11349;53.412;-1.328;2023-07-22T04:37:24;15.70;1.00
22364;DHT22;11349;53.412;-1.328;2023-07-22T04:39:50;15.80;99.90
22364;DHT22;11349;53.412;-1.328;2023-07-22T04:42:16;15.60;99.90
22364;DHT22;11349;53.412;-1.328;2023-07-22T04:44:42;15.80;1.00
22364;DHT22;11349;53.412;-1.328;2023-07-22T04:47:09;16.10;99.90
22364;DHT22;11349;53.412;-1.328;2023-07-22T04:49:36;16.20;99.90
22364;DHT22;11349;53.412;-1.328;2023-07-22T04:52:02;16.30;99.90
22364;DHT22;11349;53.412;-1.328;2023-07-22T04:54:27;16.40;99.90
22364;DHT22;11349;53.412;-1.328;2023-07-22T04:56:53;16.10;1.00
22364;DHT22;11349;53.412;-1.328;2023-07-22T04:59:19;16.20;99.90
22364;DHT22;11349;53.412;-1.328;2023-07-22T05:01:45;16.10;99.90
22364;DHT22;11349;53.412;-1.328;2023-07-22T05:04:10;16.00;99.90
22364;DHT22;11349;53.412;-1.328;2023-07-22T05:06:36;16.10;99.90
22364;DHT22;11349;53.412;-1.328;2023-07-22T05:09:02;16.20;99.90
22364;DHT22;11349;53.412;-1.328;2023-07-22T05:11:28;16.30;99.90
22364;DHT22;11349;53.412;-1.328;2023-07-22T05:13:54;16.30;99.90
22364;DHT22;11349;53.412;-1.328;2023-07-22T05:16:20;16.10;99.90
22364;DHT22;11349;53.412;-1.328;2023-07-22T05:18:46;15.90;1.00
22364;DHT22;11349;53.412;-1.328;2023-07-22T05:21:12;16.20;1.00
22364;DHT22;11349;53.412;-1.328;2023-07-22T05:23:38;16.20;58.90
22364;DHT22;11349;53.412;-1.328;2023-07-22T05:26:03;15.90;56.80
22364;DHT22;11349;53.412;-1.328;2023-07-22T05:28:29;16.10;99.90
22364;DHT22;11349;53.412;-1.328;2023-07-22T05:30:56;16.00;99.90
22364;DHT22;11349;53.412;-1.328;2023-07-22T05:33:21;16.10;1.00
22364;DHT22;11349;53.412;-1.328;2023-07-22T05:35:47;16.20;1.00
22364;DHT22;11349;53.412;-1.328;2023-07-22T05:38:13;16.40;99.90
22364;DHT22;11349;53.412;-1.328;2023-07-22T05:40:38;16.10;1.00
22364;DHT22;11349;53.412;-1.328;2023-07-22T05:43:04;16.20;99.90
22364;DHT22;11349;53.412;-1.328;2023-07-22T05:45:30;16.30;99.90
22364;DHT22;11349;53.412;-1.328;2023-07-22T05:47:55;16.50;99.90
22364;DHT22;11349;53.412;-1.328;2023-07-22T05:50:21;16.50;99.90
22364;DHT22;11349;53.412;-1.328;2023-07-22T05:52:47;16.60;99.90
22364;DHT22;11349;53.412;-1.328;2023-07-22T05:55:13;16.50;99.90
22364;DHT22;11349;53.412;-1.328;2023-07-22T05:57:40;16.50;99.90
22364;DHT22;11349;53.412;-1.328;2023-07-22T06:00:06;16.50;99.90
22364;DHT22;11349;53.412;-1.328;2023-07-22T06:02:34;16.30;99.90
22364;DHT22;11349;53.412;-1.328;2023-07-22T06:04:59;16.30;99.90
22364;DHT22;11349;53.412;-1.328;2023-07-22T06:07:25;15.90;99.90
22364;DHT22;11349;53.412;-1.328;2023-07-22T06:09:51;15.50;5.60
22364;DHT22;11349;53.412;-1.328;2023-07-22T06:12:16;15.50;99.90
22364;DHT22;11349;53.412;-1.328;2023-07-22T06:14:42;15.50;99.90
22364;DHT22;11349;53.412;-1.328;2023-07-22T06:17:08;15.50;99.90
22364;DHT22;11349;53.412;-1.328;2023-07-22T06:19:34;15.50;66.80
22364;DHT22;11349;53.412;-1.328;2023-07-22T06:21:59;15.70;1.00
22364;DHT22;11349;53.412;-1.328;2023-07-22T06:24:25;15.60;99.90
22364;DHT22;11349;53.412;-1.328;2023-07-22T06:26:51;15.50;6.30
22364;DHT22;11349;53.412;-1.328;2023-07-22T06:29:17;15.70;1.00
22364;DHT22;11349;53.412;-1.328;2023-07-22T06:31:42;15.40;1.00
22364;DHT22;11349;53.412;-1.328;2023-07-22T06:34:08;15.60;99.90
22364;DHT22;11349;53.412;-1.328;2023-07-22T06:36:36;15.60;99.90
22364;DHT22;11349;53.412;-1.328;2023-07-22T06:39:02;15.50;99.90
22364;DHT22;11349;53.412;-1.328;2023-07-22T06:41:29;15.50;99.90
22364;DHT22;11349;53.412;-1.328;2023-07-22T06:43:55;15.50;99.90
22364;DHT22;11349;53.412;-1.328;2023-07-22T06:46:20;15.40;1.00
22364;DHT22;11349;53.412;-1.328;2023-07-22T06:48:47;15.30;99.90
22364;DHT22;11349;53.412;-1.328;2023-07-22T06:51:12;15.70;73.60
22364;DHT22;11349;53.412;-1.328;2023-07-22T06:53:38;15.80;1.00
22364;DHT22;11349;53.412;-1.328;2023-07-22T06:56:04;15.70;1.00
22364;DHT22;11349;53.412;-1.328;2023-07-22T06:58:30;15.90;1.00
22364;DHT22;11349;53.412;-1.328;2023-07-22T07:00:55;16.00;1.00
22364;DHT22;11349;53.412;-1.328;2023-07-22T07:03:22;16.10;99.90
22364;DHT22;11349;53.412;-1.328;2023-07-22T07:05:53;16.50;99.90
22364;DHT22;11349;53.412;-1.328;2023-07-22T07:08:18;16.40;99.90
22364;DHT22;11349;53.412;-1.328;2023-07-22T07:10:44;16.50;99.90
22364;DHT22;11349;53.412;-1.328;2023-07-22T07:13:10;16.60;99.90
22364;DHT22;11349;53.412;-1.328;2023-07-22T07:15:36;16.70;7.80
22364;DHT22;11349;53.412;-1.328;2023-07-22T07:18:01;16.80;96.30
22364;DHT22;11349;53.412;-1.328;2023-07-22T07:20:27;16.70;42.60
22364;DHT22;11349;53.412;-1.328;2023-07-22T07:22:53;16.70;97.50
22364;DHT22;11349;53.412;-1.328;2023-07-22T07:25:18;16.70;99.90
22364;DHT22;11349;53.412;-1.328;2023-07-22T07:27:44;16.80;96.70
22364;DHT22;11349;53.412;-1.328;2023-07-22T07:30:10;16.50;99.90
22364;DHT22;11349;53.412;-1.328;2023-07-22T07:32:36;16.60;99.90
22364;DHT22;11349;53.412;-1.328;2023-07-22T07:35:02;16.40;99.90
22364;DHT22;11349;53.412;-1.328;2023-07-22T07:37:29;16.70;99.90
22364;DHT22;11349;53.412;-1.328;2023-07-22T07:39:55;16.70;65.00
22364;DHT22;11349;53.412;-1.328;2023-07-22T07:42:28;16.60;99.90
22364;DHT22;11349;53.412;-1.328;2023-07-22T07:44:54;16.60;99.90
22364;DHT22;11349;53.412;-1.328;2023-07-22T07:47:19;16.70;85.10
22364;DHT22;11349;53.412;-1.328;2023-07-22T07:49:45;16.80;1.10
22364;DHT22;11349;53.412;-1.328;2023-07-22T07:52:11;16.70;84.60
22364;DHT22;11349;53.412;-1.328;2023-07-22T07:54:37;16.70;99.90
22364;DHT22;11349;53.412;-1.328;2023-07-22T07:57:03;16.60;99.90
22364;DHT22;11349;53.412;-1.328;2023-07-22T07:59:28;16.90;96.40
22364;DHT22;11349;53.412;-1.328;2023-07-22T08:01:54;16.90;61.70
22364;DHT22;11349;53.412;-1.328;2023-07-22T08:04:20;16.80;99.90
22364;DHT22;11349;53.412;-1.328;2023-07-22T08:06:45;16.90;16.60
22364;DHT22;11349;53.412;-1.328;2023-07-22T08:09:11;16.90;1.00
22364;DHT22;11349;53.412;-1.328;2023-07-22T08:11:44;16.90;26.20
22364;DHT22;11349;53.412;-1.328;2023-07-22T08:14:09;16.90;1.00
22364;DHT22;11349;53.412;-1.328;2023-07-22T08:16:35;16.70;99.90
22364;DHT22;11349;53.412;-1.328;2023-07-22T08:19:01;16.30;99.90
22364;DHT22;11349;53.412;-1.328;2023-07-22T08:21:27;16.40;99.90
22364;DHT22;11349;53.412;-1.328;2023-07-22T08:23:52;16.60;99.90
22364;DHT22;11349;53.412;-1.328;2023-07-22T08:26:18;16.70;99.90
22364;DHT22;11349;53.412;-1.328;2023-07-22T08:28:47;16.70;99.90
22364;DHT22;11349;53.412;-1.328;2023-07-22T08:31:12;16.70;99.90
22364;DHT22;11349;53.412;-1.328;2023-07-22T08:33:38;16.90;83.10
22364;DHT22;11349;53.412;-1.328;2023-07-22T08:36:04;17.00;99.90
22364;DHT22;11349;53.412;-1.328;2023-07-22T08:38:30;17.20;99.90
22364;DHT22;11349;53.412;-1.328;2023-07-22T08:40:56;17.30;99.90
22364;DHT22;11349;53.412;-1.328;2023-07-22T08:43:22;17.20;99.90
22364;DHT22;11349;53.412;-1.328;2023-07-22T08:45:49;17.10;99.90
22364;DHT22;11349;53.412;-1.328;2023-07-22T08:48:17;17.00;99.90
22364;DHT22;11349;53.412;-1.328;2023-07-22T08:50:53;17.00;99.90
22364;DHT22;11349;53.412;-1.328;2023-07-22T08:53:20;17.10;99.90
22364;DHT22;11349;53.412;-1.328;2023-07-22T08:55:46;17.10;99.90
22364;DHT22;11349;53.412;-1.328;2023-07-22T08:58:14;17.10;99.90
22364;DHT22;11349;53.412;-1.328;2023-07-22T09:00:40;17.10;99.90
22364;DHT22;11349;53.412;-1.328;2023-07-22T09:03:06;17.10;99.90
22364;DHT22;11349;53.412;-1.328;2023-07-22T09:05:33;17.30;99.90
22364;DHT22;11349;53.412;-1.328;2023-07-22T09:08:01;17.20;99.90
22364;DHT22;11349;53.412;-1.328;2023-07-22T09:10:27;17.30;99.90
22364;DHT22;11349;53.412;-1.328;2023-07-22T09:12:54;17.30;66.80
22364;DHT22;11349;53.412;-1.328;2023-07-22T09:15:20;17.40;90.50
22364;DHT22;11349;53.412;-1.328;2023-07-22T09:17:46;17.40;99.90
22364;DHT22;11349;53.412;-1.328;2023-07-22T09:20:13;17.40;99.90
22364;DHT22;11349;53.412;-1.328;2023-07-22T09:22:46;17.30;99.90
22364;DHT22;11349;53.412;-1.328;2023-07-22T09:27:42;17.40;99.90
22364;DHT22;11349;53.412;-1.328;2023-07-22T09:30:35;17.40;99.90
22364;DHT22;11349;53.412;-1.328;2023-07-22T09:33:06;17.40;99.90
22364;DHT22;11349;53.412;-1.328;2023-07-22T09:35:44;17.40;99.90
22364;DHT22;11349;53.412;-1.328;2023-07-22T09:38:10;17.40;99.90
22364;DHT22;11349;53.412;-1.328;2023-07-22T09:40:40;17.30;99.90
22364;DHT22;11349;53.412;-1.328;2023-07-22T09:43:09;17.30;99.90
22364;DHT22;11349;53.412;-1.328;2023-07-22T09:45:35;17.40;99.90
22364;DHT22;11349;53.412;-1.328;2023-07-22T09:48:03;17.30;99.90
22364;DHT22;11349;53.412;-1.328;2023-07-22T09:50:29;17.30;99.90
22364;DHT22;11349;53.412;-1.328;2023-07-22T09:52:59;17.40;99.90
22364;DHT22;11349;53.412;-1.328;2023-07-22T09:55:27;17.30;99.90
22364;DHT22;11349;53.412;-1.328;2023-07-22T10:00:24;17.30;99.90
22364;DHT22;11349;53.412;-1.328;2023-07-22T10:02:51;17.30;99.90
22364;DHT22;11349;53.412;-1.328;2023-07-22T10:05:21;17.30;99.90
22364;DHT22;11349;53.412;-1.328;2023-07-22T10:07:52;17.40;99.90
22364;DHT22;11349;53.412;-1.328;2023-07-22T10:10:20;17.30;99.90
22364;DHT22;11349;53.412;-1.328;2023-07-22T10:12:47;17.30;99.90
22364;DHT22;11349;53.412;-1.328;2023-07-22T10:15:16;17.40;99.90
22364;DHT22;11349;53.412;-1.328;2023-07-22T10:17:44;17.30;99.90
22364;DHT22;11349;53.412;-1.328;2023-07-22T10:20:11;17.40;99.90
22364;DHT22;11349;53.412;-1.328;2023-07-22T10:22:43;17.40;99.90
22364;DHT22;11349;53.412;-1.328;2023-07-22T10:25:20;17.40;99.90
22364;DHT22;11349;53.412;-1.328;2023-07-22T10:27:48;17.40;99.90
22364;DHT22;11349;53.412;-1.328;2023-07-22T10:30:16;17.40;99.90
22364;DHT22;11349;53.412;-1.328;2023-07-22T10:32:54;17.40;99.90
22364;DHT22;11349;53.412;-1.328;2023-07-22T10:35:39;17.20;1.00
22364;DHT22;11349;53.412;-1.328;2023-07-22T10:38:09;17.30;99.90
22364;DHT22;11349;53.412;-1.328;2023-07-22T10:40:52;17.10;1.00
22364;DHT22;11349;53.412;-1.328;2023-07-22T10:43:25;17.30;99.90
22364;DHT22;11349;53.412;-1.328;2023-07-22T10:45:57;17.40;99.90
22364;DHT22;11349;53.412;-1.328;2023-07-22T10:48:26;17.40;99.90
22364;DHT22;11349;53.412;-1.328;2023-07-22T10:51:05;17.40;99.90
22364;DHT22;11349;53.412;-1.328;2023-07-22T10:53:31;17.50;99.90
22364;DHT22;11349;53.412;-1.328;2023-07-22T11:06:33;17.50;1.00
22364;DHT22;11349;53.412;-1.328;2023-07-22T11:09:00;17.60;1.00
22364;DHT22;11349;53.412;-1.328;2023-07-22T11:11:44;17.60;1.00
22364;DHT22;11349;53.412;-1.328;2023-07-22T11:14:18;17.50;1.00
22364;DHT22;11349;53.412;-1.328;2023-07-22T11:16:46;17.50;1.00
22364;DHT22;11349;53.412;-1.328;2023-07-22T11:19:14;17.40;99.90
22364;DHT22;11349;53.412;-1.328;2023-07-22T11:21:41;17.40;99.90
22364;DHT22;11349;53.412;-1.328;2023-07-22T11:24:07;17.40;99.90
22364;DHT22;11349;53.412;-1.328;2023-07-22T11:26:33;17.60;28.70
22364;DHT22;11349;53.412;-1.328;2023-07-22T11:29:03;17.60;1.00
22364;DHT22;11349;53.412;-1.328;2023-07-22T11:31:34;17.60;1.00
22364;DHT22;11349;53.412;-1.328;2023-07-22T11:34:05;17.80;1.00
22364;DHT22;11349;53.412;-1.328;2023-07-22T11:36:31;17.80;1.00
22364;DHT22;11349;53.412;-1.328;2023-07-22T11:39:07;17.80;1.00
22364;DHT22;11349;53.412;-1.328;2023-07-22T11:41:34;17.80;97.80
22364;DHT22;11349;53.412;-1.328;2023-07-22T11:44:01;18.00;1.00
22364;DHT22;11349;53.412;-1.328;2023-07-22T11:46:27;17.90;6.70
22364;DHT22;11349;53.412;-1.328;2023-07-22T11:48:55;17.60;1.00
22364;DHT22;11349;53.412;-1.328;2023-07-22T11:51:22;17.80;99.90
22364;DHT22;11349;53.412;-1.328;2023-07-22T11:53:52;17.90;32.60
22364;DHT22;11349;53.412;-1.328;2023-07-22T11:56:22;17.90;43.70
22364;DHT22;11349;53.412;-1.328;2023-07-22T11:58:53;17.90;2.90
22364;DHT22;11349;53.412;-1.328;2023-07-22T12:01:19;17.70;99.90
22364;DHT22;11349;53.412;-1.328;2023-07-22T12:03:45;17.80;99.90
22364;DHT22;11349;53.412;-1.328;2023-07-22T12:06:12;17.90;99.90
22364;DHT22;11349;53.412;-1.328;2023-07-22T12:08:48;17.90;99.90
22364;DHT22;11349;53.412;-1.328;2023-07-22T12:11:23;17.70;99.90
22364;DHT22;11349;53.412;-1.328;2023-07-22T12:14:08;17.80;99.90
22364;DHT22;11349;53.412;-1.328;2023-07-22T12:16:39;17.40;1.00
22364;DHT22;11349;53.412;-1.328;2023-07-22T12:19:05;17.70;99.90
22364;DHT22;11349;53.412;-1.328;2023-07-22T12:21:32;17.90;99.90
22364;DHT22;11349;53.412;-1.328;2023-07-22T12:23:58;17.80;99.90
22364;DHT22;11349;53.412;-1.328;2023-07-22T12:26:24;17.90;99.90
22364;DHT22;11349;53.412;-1.328;2023-07-22T12:28:49;17.90;99.90
22364;DHT22;11349;53.412;-1.328;2023-07-22T12:31:15;17.80;99.90
22364;DHT22;11349;53.412;-1.328;2023-07-22T12:33:41;17.90;99.90
22364;DHT22;11349;53.412;-1.328;2023-07-22T12:36:07;18.10;1.00
22364;DHT22;11349;53.412;-1.328;2023-07-22T12:38:33;18.10;1.00
22364;DHT22;11349;53.412;-1.328;2023-07-22T12:40:59;18.10;1.00
22364;DHT22;11349;53.412;-1.328;2023-07-22T12:43:25;17.90;99.80
22364;DHT22;11349;53.412;-1.328;2023-07-22T12:45:51;17.90;90.50
22364;DHT22;11349;53.412;-1.328;2023-07-22T12:48:17;18.00;1.00
22364;DHT22;11349;53.412;-1.328;2023-07-22T12:50:43;17.90;53.30
22364;DHT22;11349;53.412;-1.328;2023-07-22T12:53:09;18.00;22.60
22364;DHT22;11349;53.412;-1.328;2023-07-22T12:55:35;18.20;1.00
22364;DHT22;11349;53.412;-1.328;2023-07-22T12:58:01;18.20;1.00
22364;DHT22;11349;53.412;-1.328;2023-07-22T13:00:27;18.40;99.90
22364;DHT22;11349;53.412;-1.328;2023-07-22T13:02:53;18.20;1.00
22364;DHT22;11349;53.412;-1.328;2023-07-22T13:05:19;18.30;1.00
22364;DHT22;11349;53.412;-1.328;2023-07-22T13:07:45;18.20;1.00
22364;DHT22;11349;53.412;-1.328;2023-07-22T13:10:11;18.20;1.00
22364;DHT22;11349;53.412;-1.328;2023-07-22T13:12:40;18.10;1.00
22364;DHT22;11349;53.412;-1.328;2023-07-22T13:15:06;18.20;1.00
22364;DHT22;11349;53.412;-1.328;2023-07-22T13:17:32;18.20;1.00
22364;DHT22;11349;53.412;-1.328;2023-07-22T13:19:57;18.20;1.00
22364;DHT22;11349;53.412;-1.328;2023-07-22T13:22:23;18.30;1.00
22364;DHT22;11349;53.412;-1.328;2023-07-22T13:24:49;18.20;1.00
22364;DHT22;11349;53.412;-1.328;2023-07-22T13:27:14;18.10;1.00
22364;DHT22;11349;53.412;-1.328;2023-07-22T13:29:40;18.20;1.00
22364;DHT22;11349;53.412;-1.328;2023-07-22T13:32:06;18.30;1.00
22364;DHT22;11349;53.412;-1.328;2023-07-22T13:34:32;18.30;99.90
22364;DHT22;11349;53.412;-1.328;2023-07-22T13:36:58;18.40;99.90
22364;DHT22;11349;53.412;-1.328;2023-07-22T13:39:24;18.40;99.90
22364;DHT22;11349;53.412;-1.328;2023-07-22T13:41:49;18.40;99.90
22364;DHT22;11349;53.412;-1.328;2023-07-22T13:44:16;18.20;99.90
22364;DHT22;11349;53.412;-1.328;2023-07-22T13:46:42;18.30;1.00
22364;DHT22;11349;53.412;-1.328;2023-07-22T13:49:07;18.40;99.90
22364;DHT22;11349;53.412;-1.328;2023-07-22T13:51:33;18.40;99.90
22364;DHT22;11349;53.412;-1.328;2023-07-22T13:53:59;18.50;99.90
22364;DHT22;11349;53.412;-1.328;2023-07-22T13:56:25;18.40;99.90
22364;DHT22;11349;53.412;-1.328;2023-07-22T13:58:50;18.40;99.90
22364;DHT22;11349;53.412;-1.328;2023-07-22T14:01:17;18.50;99.90
22364;DHT22;11349;53.412;-1.328;2023-07-22T14:03:43;18.50;99.90
22364;DHT22;11349;53.412;-1.328;2023-07-22T14:06:09;18.50;99.90
22364;DHT22;11349;53.412;-1.328;2023-07-22T14:08:34;18.60;99.90
22364;DHT22;11349;53.412;-1.328;2023-07-22T14:11:00;18.60;99.90
22364;DHT22;11349;53.412;-1.328;2023-07-22T14:13:26;18.60;99.90
22364;DHT22;11349;53.412;-1.328;2023-07-22T14:15:51;18.50;99.90
22364;DHT22;11349;53.412;-1.328;2023-07-22T14:18:18;18.60;99.90
22364;DHT22;11349;53.412;-1.328;2023-07-22T14:20:44;18.60;99.90
22364;DHT22;11349;53.412;-1.328;2023-07-22T14:23:11;18.60;99.90
22364;DHT22;11349;53.412;-1.328;2023-07-22T14:25:36;18.60;99.90
22364;DHT22;11349;53.412;-1.328;2023-07-22T14:28:02;18.40;1.00
22364;DHT22;11349;53.412;-1.328;2023-07-22T14:30:28;18.50;1.00
22364;DHT22;11349;53.412;-1.328;2023-07-22T14:32:54;18.50;99.90
22364;DHT22;11349;53.412;-1.328;2023-07-22T14:35:21;18.60;1.00
22364;DHT22;11349;53.412;-1.328;2023-07-22T14:37:47;18.60;1.00
22364;DHT22;11349;53.412;-1.328;2023-07-22T14:40:12;18.60;99.90
22364;DHT22;11349;53.412;-1.328;2023-07-22T14:42:38;18.60;1.00
22364;DHT22;11349;53.412;-1.328;2023-07-22T14:45:05;18.70;99.90
22364;DHT22;11349;53.412;-1.328;2023-07-22T14:47:31;18.70;99.90
22364;DHT22;11349;53.412;-1.328;2023-07-22T14:49:57;18.70;99.90
22364;DHT22;11349;53.412;-1.328;2023-07-22T14:52:22;18.70;1.00
22364;DHT22;11349;53.412;-1.328;2023-07-22T14:54:49;18.80;99.90
22364;DHT22;11349;53.412;-1.328;2023-07-22T14:57:16;18.80;99.90
22364;DHT22;11349;53.412;-1.328;2023-07-22T14:59:42;18.80;99.90
22364;DHT22;11349;53.412;-1.328;2023-07-22T15:02:08;18.90;99.90
22364;DHT22;11349;53.412;-1.328;2023-07-22T15:04:33;18.80;99.90
22364;DHT22;11349;53.412;-1.328;2023-07-22T15:06:59;18.90;1.00
22364;DHT22;11349;53.412;-1.328;2023-07-22T15:09:25;18.90;99.90
22364;DHT22;11349;53.412;-1.328;2023-07-22T15:11:51;18.80;1.00
22364;DHT22;11349;53.412;-1.328;2023-07-22T15:14:18;18.90;99.90
22364;DHT22;11349;53.412;-1.328;2023-07-22T15:16:44;19.00;1.00
22364;DHT22;11349;53.412;-1.328;2023-07-22T15:19:11;18.90;1.00
22364;DHT22;11349;53.412;-1.328;2023-07-22T15:21:36;18.90;1.00
22364;DHT22;11349;53.412;-1.328;2023-07-22T15:24:02;18.90;1.00
22364;DHT22;11349;53.412;-1.328;2023-07-22T15:26:28;19.00;1.00
22364;DHT22;11349;53.412;-1.328;2023-07-22T15:28:54;19.00;1.00
22364;DHT22;11349;53.412;-1.328;2023-07-22T15:31:20;19.10;99.90
22364;DHT22;11349;53.412;-1.328;2023-07-22T15:33:46;19.00;1.00